Chantaco — FMLM — position and weather

sailwx.info

Track history (hours):
 
Tides and Currents Weather Stations Pressure Air Temp Water Temp Dewpoint Dewpoint Depression Visibility Wind Speed Wind Dir Waves Ship Positions

Chantaco

Last reported at 2015-Aug-30 05:33 UTC. Time now 2015-Aug-30 07:51 UTC.
Position N 37°51' E 005°00'.

Length 143 m; draft 8.8 m.

Type: Tanker. MMSI: 228330700.

Date/timePositionNaut miles runAvg speedWind from/ knotsBaromVisibWave heightAir tempDewpointWater temp
2015-Aug-30 05:33N 37°51' E 005°00'1211.9
2015-Aug-30 04:32N 37°48' E 004°46'26812.0
2015-Aug-29 06:08N 36°41' W 000°40'812.1
2015-Aug-29 05:29N 36°39' W 000°49'1712.2
2015-Aug-29 04:05N 36°34' W 001°10'712.1
2015-Aug-29 03:32N 36°33' W 001°18'1212.2
2015-Aug-29 02:31N 36°29' W 001°33'1512.1
2015-Aug-29 01:15N 36°26' W 001°51'911.8
2015-Aug-29 00:29N 36°23' W 002°02'1111.8
2015-Aug-28 23:33N 36°21' W 002°16'27212.1
2015-Aug-28 01:05N 36°13' W 007°53'611.8
2015-Aug-28 00:33N 36°15' W 008°01'1212.0
2015-Aug-27 23:33N 36°18' W 008°15'1212.2
2015-Aug-27 22:33N 36°20' W 008°30'1312.2
2015-Aug-27 21:28N 36°23' W 008°46'1112.2
2015-Aug-27 20:34N 36°26' W 008°59'1212.3
2015-Aug-27 19:34N 36°29' W 009°14'1512.1
2015-Aug-27 18:19N 36°38' W 009°29'1212.3
2015-Aug-27 17:19N 36°48' W 009°38'1012.7
2015-Aug-27 16:33N 36°57' W 009°41'1512.1
2015-Aug-27 15:21N 37°12' W 009°45'1112.3
2015-Aug-27 14:30N 37°22' W 009°48'1213.0
2015-Aug-27 13:33N 37°34' W 009°51'2811.8
2015-Aug-27 11:12N 38°01' W 009°60'812.0
2015-Aug-27 10:33N 38°08' W 010°02'1212.1
2015-Aug-27 09:33N 38°20' W 010°05'1313.0
2015-Aug-27 08:33N 38°33' W 010°09'1312.6
2015-Aug-27 07:33N 38°45' W 010°12'1212.1
2015-Aug-27 06:33N 38°57' W 010°12'1211.7
2015-Aug-27 05:33N 39°09' W 010°12'1211.6
2015-Aug-27 04:32N 39°21' W 010°12'  
2015-Aug-23 20:33N 50°33' E 000°26'1212.4
2015-Aug-23 19:34N 50°38' E 000°43'1211.8
2015-Aug-23 18:34N 50°45' E 000°58'1110.8
2015-Aug-23 17:33N 50°52' E 001°12'1010.1
2015-Aug-23 16:33N 50°59' E 001°23'1010.3
2015-Aug-23 15:33N 51°06' E 001°34'1111.5
2015-Aug-23 14:34N 51°15' E 001°47'1312.6
2015-Aug-23 13:33N 51°25' E 001°59'1212.2
2015-Aug-23 12:33N 51°20' E 002°17'1412.7
2015-Aug-23 11:28N 51°23' E 002°39'1112.0
2015-Aug-23 10:34N 51°23' E 002°57'1212.4
2015-Aug-23 09:33N 51°25' E 003°16'1312.9
2015-Aug-23 08:33N 51°26' E 003°37'1010.4
2015-Aug-23 07:33N 51°21' E 003°51'8 7.6
2015-Aug-23 06:33N 51°24' E 004°02'7 7.2
2015-Aug-23 05:34N 51°22' E 004°13'3 2.9
2015-Aug-23 04:34N 51°21' E 004°17'1 1.2
2015-Aug-23 03:34N 51°20' E 004°18'4 3.9
2015-Aug-23 02:33N 51°16' E 004°21'0 0.0
2015-Aug-23 01:33N 51°16' E 004°21'0 0.0
2015-Aug-23 00:34N 51°16' E 004°21'0 0.0
2015-Aug-22 23:33N 51°16' E 004°21'0 0.0
2015-Aug-22 22:34N 51°16' E 004°21'0 0.0
2015-Aug-22 21:33N 51°16' E 004°21'0 0.0
2015-Aug-22 20:34N 51°16' E 004°21'0 0.0
2015-Aug-22 19:33N 51°16' E 004°21'0 0.0
2015-Aug-22 18:33N 51°16' E 004°21'0 0.0
2015-Aug-22 17:34N 51°16' E 004°21'0 0.0
2015-Aug-22 16:33N 51°16' E 004°21'0 0.0
2015-Aug-22 15:33N 51°16' E 004°21'0 0.0
2015-Aug-22 14:34N 51°16' E 004°21'0 0.0
2015-Aug-22 13:34N 51°16' E 004°21'0 0.0
2015-Aug-22 12:34N 51°16' E 004°21'0 0.0
2015-Aug-22 11:33N 51°16' E 004°21'0 0.0
2015-Aug-22 10:33N 51°16' E 004°21'0 0.0
2015-Aug-22 09:34N 51°16' E 004°21'0 0.0
2015-Aug-22 08:34N 51°16' E 004°21'0 0.0
2015-Aug-22 07:34N 51°16' E 004°21'0 0.0
2015-Aug-22 06:33N 51°16' E 004°21'0 0.0
2015-Aug-22 05:33N 51°16' E 004°21'0 0.0
2015-Aug-22 04:34N 51°16' E 004°21'0 0.0
2015-Aug-22 03:34N 51°16' E 004°21'0 0.0
2015-Aug-22 02:33N 51°16' E 004°21'0 0.0
2015-Aug-22 01:33N 51°16' E 004°21'0 0.0
2015-Aug-22 00:34N 51°16' E 004°21'0 0.0
2015-Aug-21 23:33N 51°16' E 004°21'0 0.0
2015-Aug-21 22:33N 51°16' E 004°21'0 0.0
2015-Aug-21 21:33N 51°16' E 004°21'0 0.0
2015-Aug-21 20:34N 51°16' E 004°21'1 0.6
2015-Aug-21 19:33N 51°16' E 004°21'1 0.6
2015-Aug-21 18:34N 51°16' E 004°22'0 0.0
2015-Aug-21 17:33N 51°16' E 004°22'0 0.0
2015-Aug-21 16:34N 51°16' E 004°22'0 0.0
2015-Aug-21 15:34N 51°16' E 004°22'0 0.0
2015-Aug-21 14:34N 51°16' E 004°22'0 0.0
2015-Aug-21 13:33N 51°16' E 004°22'0 0.0
2015-Aug-21 12:33N 51°16' E 004°22'0 0.0
2015-Aug-21 11:34N 51°16' E 004°22'0 0.0
2015-Aug-21 10:34N 51°16' E 004°22'0 0.0
2015-Aug-21 09:33N 51°16' E 004°22'0 0.0
2015-Aug-21 08:33N 51°16' E 004°22'0 0.0
2015-Aug-21 07:33N 51°16' E 004°22'0 0.0
2015-Aug-21 06:33N 51°16' E 004°22'0 0.0
2015-Aug-21 05:33N 51°16' E 004°22'0 0.0
2015-Aug-21 04:33N 51°16' E 004°22'0 0.0
2015-Aug-21 03:34N 51°16' E 004°22'0 0.0
2015-Aug-21 02:33N 51°16' E 004°22'0 0.0
2015-Aug-21 01:34N 51°16' E 004°22'0 0.0
2015-Aug-21 00:34N 51°16' E 004°22'0 0.0
2015-Aug-20 23:34N 51°16' E 004°22'0 0.0
2015-Aug-20 22:34N 51°16' E 004°22'0 0.0
2015-Aug-20 21:33N 51°16' E 004°22'0 0.0
2015-Aug-20 20:34N 51°16' E 004°22'0 0.0
2015-Aug-20 19:34N 51°16' E 004°22'0 0.0
2015-Aug-20 18:34N 51°16' E 004°22'0 0.0
2015-Aug-20 17:34N 51°16' E 004°22'0 0.0
2015-Aug-20 16:33N 51°16' E 004°22'0 0.0
2015-Aug-20 15:33N 51°16' E 004°22'0 0.0
2015-Aug-20 14:34N 51°16' E 004°22'0 0.0
2015-Aug-20 13:33N 51°16' E 004°22'0 0.0
2015-Aug-20 12:34N 51°16' E 004°22'0 0.0
2015-Aug-20 11:34N 51°16' E 004°22'0 0.0
2015-Aug-20 10:33N 51°16' E 004°22'0 0.0
2015-Aug-20 09:33N 51°16' E 004°22'0 0.0
2015-Aug-20 08:34N 51°16' E 004°22'0 0.0
2015-Aug-20 07:34N 51°16' E 004°22'0 0.0
2015-Aug-20 06:33N 51°16' E 004°22'0 0.0
2015-Aug-20 05:34N 51°16' E 004°22'  
Track history (hours):
 
Tides and Currents Weather Stations Pressure Air Temp Water Temp Dewpoint Dewpoint Depression Visibility Wind Speed Wind Dir Waves Ship Positions

Chantaco

Last reported at 2015-Aug-30 05:33 UTC. Time now 2015-Aug-30 07:51 UTC.
Position N 37°51' E 005°00'.

Length 143 m; draft 8.8 m.

Type: Tanker. MMSI: 228330700.

Date/timePositionNaut miles runAvg speedWind from/ knotsBaromVisibWave heightAir tempDewpointWater temp
2015-Aug-30 05:33N 37°51' E 005°00'1211.9
2015-Aug-30 04:32N 37°48' E 004°46'26812.0
2015-Aug-29 06:08N 36°41' W 000°40'812.1
2015-Aug-29 05:29N 36°39' W 000°49'1712.2
2015-Aug-29 04:05N 36°34' W 001°10'712.1
2015-Aug-29 03:32N 36°33' W 001°18'1212.2
2015-Aug-29 02:31N 36°29' W 001°33'1512.1
2015-Aug-29 01:15N 36°26' W 001°51'911.8
2015-Aug-29 00:29N 36°23' W 002°02'1111.8
2015-Aug-28 23:33N 36°21' W 002°16'27212.1
2015-Aug-28 01:05N 36°13' W 007°53'611.8
2015-Aug-28 00:33N 36°15' W 008°01'1212.0
2015-Aug-27 23:33N 36°18' W 008°15'1212.2
2015-Aug-27 22:33N 36°20' W 008°30'1312.2
2015-Aug-27 21:28N 36°23' W 008°46'1112.2
2015-Aug-27 20:34N 36°26' W 008°59'1212.3
2015-Aug-27 19:34N 36°29' W 009°14'1512.1
2015-Aug-27 18:19N 36°38' W 009°29'1212.3
2015-Aug-27 17:19N 36°48' W 009°38'1012.7
2015-Aug-27 16:33N 36°57' W 009°41'1512.1
2015-Aug-27 15:21N 37°12' W 009°45'1112.3
2015-Aug-27 14:30N 37°22' W 009°48'1213.0
2015-Aug-27 13:33N 37°34' W 009°51'2811.8
2015-Aug-27 11:12N 38°01' W 009°60'812.0
2015-Aug-27 10:33N 38°08' W 010°02'1212.1
2015-Aug-27 09:33N 38°20' W 010°05'1313.0
2015-Aug-27 08:33N 38°33' W 010°09'1312.6
2015-Aug-27 07:33N 38°45' W 010°12'1212.1
2015-Aug-27 06:33N 38°57' W 010°12'1211.7
2015-Aug-27 05:33N 39°09' W 010°12'1211.6
2015-Aug-27 04:32N 39°21' W 010°12'  
2015-Aug-23 20:33N 50°33' E 000°26'1212.4
2015-Aug-23 19:34N 50°38' E 000°43'1211.8
2015-Aug-23 18:34N 50°45' E 000°58'1110.8
2015-Aug-23 17:33N 50°52' E 001°12'1010.1
2015-Aug-23 16:33N 50°59' E 001°23'1010.3
2015-Aug-23 15:33N 51°06' E 001°34'1111.5
2015-Aug-23 14:34N 51°15' E 001°47'1312.6
2015-Aug-23 13:33N 51°25' E 001°59'1212.2
2015-Aug-23 12:33N 51°20' E 002°17'1412.7
2015-Aug-23 11:28N 51°23' E 002°39'1112.0
2015-Aug-23 10:34N 51°23' E 002°57'1212.4
2015-Aug-23 09:33N 51°25' E 003°16'1312.9
2015-Aug-23 08:33N 51°26' E 003°37'1010.4
2015-Aug-23 07:33N 51°21' E 003°51'8 7.6
2015-Aug-23 06:33N 51°24' E 004°02'7 7.2
2015-Aug-23 05:34N 51°22' E 004°13'3 2.9
2015-Aug-23 04:34N 51°21' E 004°17'1 1.2
2015-Aug-23 03:34N 51°20' E 004°18'4 3.9
2015-Aug-23 02:33N 51°16' E 004°21'0 0.0
2015-Aug-23 01:33N 51°16' E 004°21'0 0.0
2015-Aug-23 00:34N 51°16' E 004°21'0 0.0
2015-Aug-22 23:33N 51°16' E 004°21'0 0.0
2015-Aug-22 22:34N 51°16' E 004°21'0 0.0
2015-Aug-22 21:33N 51°16' E 004°21'0 0.0
2015-Aug-22 20:34N 51°16' E 004°21'0 0.0
2015-Aug-22 19:33N 51°16' E 004°21'0 0.0
2015-Aug-22 18:33N 51°16' E 004°21'0 0.0
2015-Aug-22 17:34N 51°16' E 004°21'0 0.0
2015-Aug-22 16:33N 51°16' E 004°21'0 0.0
2015-Aug-22 15:33N 51°16' E 004°21'0 0.0
2015-Aug-22 14:34N 51°16' E 004°21'0 0.0
2015-Aug-22 13:34N 51°16' E 004°21'0 0.0
2015-Aug-22 12:34N 51°16' E 004°21'0 0.0
2015-Aug-22 11:33N 51°16' E 004°21'0 0.0
2015-Aug-22 10:33N 51°16' E 004°21'0 0.0
2015-Aug-22 09:34N 51°16' E 004°21'0 0.0
2015-Aug-22 08:34N 51°16' E 004°21'0 0.0
2015-Aug-22 07:34N 51°16' E 004°21'0 0.0
2015-Aug-22 06:33N 51°16' E 004°21'0 0.0
2015-Aug-22 05:33N 51°16' E 004°21'0 0.0
2015-Aug-22 04:34N 51°16' E 004°21'0 0.0
2015-Aug-22 03:34N 51°16' E 004°21'0 0.0
2015-Aug-22 02:33N 51°16' E 004°21'0 0.0
2015-Aug-22 01:33N 51°16' E 004°21'0 0.0
2015-Aug-22 00:34N 51°16' E 004°21'0 0.0
2015-Aug-21 23:33N 51°16' E 004°21'0 0.0
2015-Aug-21 22:33N 51°16' E 004°21'0 0.0
2015-Aug-21 21:33N 51°16' E 004°21'0 0.0
2015-Aug-21 20:34N 51°16' E 004°21'1 0.6
2015-Aug-21 19:33N 51°16' E 004°21'1 0.6
2015-Aug-21 18:34N 51°16' E 004°22'0 0.0
2015-Aug-21 17:33N 51°16' E 004°22'0 0.0
2015-Aug-21 16:34N 51°16' E 004°22'0 0.0
2015-Aug-21 15:34N 51°16' E 004°22'0 0.0
2015-Aug-21 14:34N 51°16' E 004°22'0 0.0
2015-Aug-21 13:33N 51°16' E 004°22'0 0.0
2015-Aug-21 12:33N 51°16' E 004°22'0 0.0
2015-Aug-21 11:34N 51°16' E 004°22'0 0.0
2015-Aug-21 10:34N 51°16' E 004°22'0 0.0
2015-Aug-21 09:33N 51°16' E 004°22'0 0.0
2015-Aug-21 08:33N 51°16' E 004°22'0 0.0
2015-Aug-21 07:33N 51°16' E 004°22'0 0.0
2015-Aug-21 06:33N 51°16' E 004°22'0 0.0
2015-Aug-21 05:33N 51°16' E 004°22'0 0.0
2015-Aug-21 04:33N 51°16' E 004°22'0 0.0
2015-Aug-21 03:34N 51°16' E 004°22'0 0.0
2015-Aug-21 02:33N 51°16' E 004°22'0 0.0
2015-Aug-21 01:34N 51°16' E 004°22'0 0.0
2015-Aug-21 00:34N 51°16' E 004°22'0 0.0
2015-Aug-20 23:34N 51°16' E 004°22'0 0.0
2015-Aug-20 22:34N 51°16' E 004°22'0 0.0
2015-Aug-20 21:33N 51°16' E 004°22'0 0.0
2015-Aug-20 20:34N 51°16' E 004°22'0 0.0
2015-Aug-20 19:34N 51°16' E 004°22'0 0.0
2015-Aug-20 18:34N 51°16' E 004°22'0 0.0
2015-Aug-20 17:34N 51°16' E 004°22'0 0.0
2015-Aug-20 16:33N 51°16' E 004°22'0 0.0
2015-Aug-20 15:33N 51°16' E 004°22'0 0.0
2015-Aug-20 14:34N 51°16' E 004°22'0 0.0
2015-Aug-20 13:33N 51°16' E 004°22'0 0.0
2015-Aug-20 12:34N 51°16' E 004°22'0 0.0
2015-Aug-20 11:34N 51°16' E 004°22'0 0.0
2015-Aug-20 10:33N 51°16' E 004°22'0 0.0
2015-Aug-20 09:33N 51°16' E 004°22'0 0.0
2015-Aug-20 08:34N 51°16' E 004°22'0 0.0
2015-Aug-20 07:34N 51°16' E 004°22'0 0.0
2015-Aug-20 06:33N 51°16' E 004°22'0 0.0
2015-Aug-20 05:34N 51°16' E 004°22'  

Dump ship's entire track history